createdAt,value
2022-08-05T00:00:17.217Z,101292.25
2022-08-05T00:02:50.725Z,101292.03
2022-08-05T00:06:02.723Z,101283.34
2022-08-05T00:08:05.680Z,101301.34
2022-08-05T00:10:52.223Z,101302.56
2022-08-05T00:13:19.876Z,101289.53
2022-08-05T00:15:56.450Z,101294.88
2022-08-05T00:18:27.823Z,101291.75
2022-08-05T00:20:58.394Z,101287.63
2022-08-05T00:23:44.325Z,101304.22
2022-08-05T00:26:12.946Z,101312.75
2022-08-05T00:28:39.730Z,101317.19
2022-08-05T00:31:07.613Z,101318.78
2022-08-05T00:34:54.150Z,101320.47
2022-08-05T00:37:09.764Z,101331.44
2022-08-05T00:39:13.559Z,101317.09
2022-08-05T00:41:55.126Z,101324.44
2022-08-05T00:44:30.554Z,101321.94
2022-08-05T00:47:02.209Z,101324.06
2022-08-05T00:49:32.731Z,101320.31
2022-08-05T00:52:11.216Z,101314.38
2022-08-05T00:54:38.917Z,101312.59
2022-08-05T00:57:05.867Z,101319.16
2022-08-05T00:59:34.547Z,101319.75
2022-08-05T01:02:11.427Z,101337.34
2022-08-05T01:04:38.128Z,101347.44
2022-08-05T01:07:23.489Z,101353.44
2022-08-05T01:09:57.177Z,101361.94
2022-08-05T01:12:29.780Z,101362.19
2022-08-05T01:15:04.142Z,101374.63
2022-08-05T01:17:39.865Z,101382.78
2022-08-05T01:20:40.748Z,101388.50
2022-08-05T01:23:23.687Z,101386.88
2022-08-05T01:26:18.976Z,101392.97
2022-08-05T01:28:48.999Z,101373.50
2022-08-05T01:31:19.652Z,101366.09
2022-08-05T01:33:55.332Z,101367.47
2022-08-05T01:36:28.106Z,101359.41
2022-08-05T01:38:56.663Z,101364.09
2022-08-05T01:41:29.496Z,101367.44
2022-08-05T01:43:57.092Z,101343.06
2022-08-05T01:46:42.134Z,101351.53
2022-08-05T01:49:23.817Z,101348.50
2022-08-05T01:51:58.444Z,101355.69
2022-08-05T01:54:31.745Z,101355.69
2022-08-05T01:58:11.869Z,101345.72
2022-08-05T01:59:50.935Z,101337.81
2022-08-05T02:02:26.285Z,101326.09
2022-08-05T02:05:00.764Z,101302.00
2022-08-05T02:07:30.445Z,101320.31
2022-08-05T02:09:58.549Z,101309.31
2022-08-05T02:12:51.795Z,101305.88
2022-08-05T02:15:34.230Z,101305.81
2022-08-05T02:18:32.692Z,101301.59
2022-08-05T02:21:46.764Z,101311.59
2022-08-05T02:24:23.129Z,101315.78
2022-08-05T02:26:59.973Z,101343.88
2022-08-05T02:30:00.052Z,101346.72
2022-08-05T02:32:30.862Z,101354.16
2022-08-05T02:35:13.811Z,101364.53
2022-08-05T02:37:47.893Z,101361.75
2022-08-05T02:40:23.061Z,101354.38
2022-08-05T02:42:54.331Z,101365.94
2022-08-05T02:45:24.183Z,101362.13
2022-08-05T02:47:58.414Z,101355.97
2022-08-05T02:50:38.517Z,101329.09
2022-08-05T02:53:18.976Z,101341.75
2022-08-05T02:56:00.295Z,101345.50
2022-08-05T02:58:34.559Z,101338.97
2022-08-05T03:01:02.887Z,101338.06
2022-08-05T03:03:34.206Z,101350.34
2022-08-05T03:06:53.647Z,101344.22
2022-08-05T03:09:07.908Z,101347.13
2022-08-05T03:11:54.843Z,101359.09
2022-08-05T03:14:21.779Z,101359.72
2022-08-05T03:16:48.522Z,101368.25
2022-08-05T03:19:20.386Z,101365.25
2022-08-05T03:22:01.556Z,101381.69
2022-08-05T03:24:30.862Z,101394.44
2022-08-05T03:27:00.280Z,101397.13
2022-08-05T03:29:44.682Z,101393.03
2022-08-05T03:32:14.410Z,101388.59
2022-08-05T03:34:50.683Z,101378.25
2022-08-05T03:37:21.613Z,101379.09
2022-08-05T03:40:00.999Z,101374.63
2022-08-05T03:42:31.965Z,101375.00
2022-08-05T03:44:59.465Z,101362.63
2022-08-05T03:47:30.562Z,101364.72
2022-08-05T03:50:02.434Z,101368.38
2022-08-05T03:52:48.778Z,101375.06
2022-08-05T03:56:05.517Z,101349.31
2022-08-05T03:58:29.116Z,101341.59
2022-08-05T04:01:00.029Z,101347.44
2022-08-05T04:03:29.322Z,101342.41
2022-08-05T04:05:59.140Z,101339.63
2022-08-05T04:08:34.774Z,101336.00
2022-08-05T04:11:05.983Z,101336.44
2022-08-05T04:13:51.059Z,101338.28
2022-08-05T04:16:24.855Z,101343.19
2022-08-05T04:18:54.770Z,101349.66
2022-08-05T04:22:09.302Z,101348.09
2022-08-05T04:24:52.747Z,101358.06
2022-08-05T04:27:33.092Z,101363.34
2022-08-05T04:30:09.188Z,101355.25
2022-08-05T04:32:40.042Z,101354.84
2022-08-05T04:35:19.841Z,101362.16
2022-08-05T04:38:02.880Z,101353.66
2022-08-05T04:40:57.377Z,101365.00
2022-08-05T04:43:26.090Z,101364.41
2022-08-05T04:48:41.271Z,101358.31
2022-08-05T04:51:11.126Z,101370.06
2022-08-05T04:53:38.890Z,101367.44
2022-08-05T04:56:14.515Z,101366.78
2022-08-05T04:58:56.585Z,101364.75
2022-08-05T05:02:06.140Z,101356.44
2022-08-05T05:04:10.781Z,101356.09
2022-08-05T05:06:44.720Z,101358.50
2022-08-05T05:09:17.599Z,101364.78
2022-08-05T05:11:54.544Z,101372.28
2022-08-05T05:14:31.586Z,101367.41
2022-08-05T05:16:59.506Z,101372.66
2022-08-05T05:19:26.662Z,101371.47
2022-08-05T05:22:03.682Z,101374.91
2022-08-05T05:24:57.527Z,101379.38
2022-08-05T05:27:45.847Z,101379.59
2022-08-05T05:30:31.107Z,101375.72
2022-08-05T05:33:09.162Z,101392.75
2022-08-05T05:35:45.006Z,101394.38
2022-08-05T05:38:13.156Z,101399.47
2022-08-05T05:40:48.383Z,101408.38
2022-08-05T05:43:28.193Z,101416.31
2022-08-05T05:46:08.483Z,101406.38
2022-08-05T05:48:41.895Z,101402.72
2022-08-05T05:51:15.772Z,101400.28
2022-08-05T05:53:45.936Z,101419.72
2022-08-05T05:56:26.074Z,101413.25
2022-08-05T05:59:05.706Z,101425.41
2022-08-05T06:01:37.796Z,101422.53
2022-08-05T06:04:14.574Z,101423.31
2022-08-05T06:06:43.193Z,101419.63
2022-08-05T06:09:17.637Z,101436.22
2022-08-05T06:12:00.035Z,101425.22
2022-08-05T06:14:30.003Z,101435.00
2022-08-05T06:16:57.925Z,101430.94
2022-08-05T06:19:26.043Z,101432.34
2022-08-05T06:22:01.145Z,101409.38
2022-08-05T06:24:27.770Z,101425.41
2022-08-05T06:26:55.101Z,101430.03
2022-08-05T06:29:25.063Z,101429.69
2022-08-05T06:32:25.190Z,101436.19
2022-08-05T06:34:57.842Z,101432.09
2022-08-05T06:37:56.273Z,101442.06
2022-08-05T06:40:18.213Z,101442.59
2022-08-05T06:42:51.537Z,101450.13
2022-08-05T06:45:44.996Z,101450.28
2022-08-05T06:48:47.023Z,101457.59
2022-08-05T06:51:01.078Z,101454.94
2022-08-05T06:53:29.033Z,101436.13
2022-08-05T06:56:00.511Z,101454.16
2022-08-05T06:58:34.849Z,101474.47
2022-08-05T07:01:05.394Z,101464.69
2022-08-05T07:03:33.318Z,101475.34
2022-08-05T07:06:05.946Z,101470.56
2022-08-05T07:08:47.534Z,101475.06
2022-08-05T07:11:22.448Z,101492.97
2022-08-05T07:14:20.319Z,101491.00
2022-08-05T07:18:02.422Z,101489.13
2022-08-05T07:20:31.178Z,101501.97
2022-08-05T07:22:34.566Z,101499.81
2022-08-05T07:25:22.006Z,101498.66
2022-08-05T07:27:57.792Z,101501.88
2022-08-05T07:30:33.762Z,101503.50
2022-08-05T07:33:09.359Z,101509.84
2022-08-05T07:36:01.877Z,101499.06
2022-08-05T07:38:33.186Z,101511.75
2022-08-05T07:42:07.315Z,101514.81
2022-08-05T07:43:56.562Z,101511.97
2022-08-05T07:46:29.703Z,101519.53
2022-08-05T07:49:05.384Z,101526.44
2022-08-05T07:51:37.281Z,101534.41
2022-08-05T07:54:10.137Z,101540.31
2022-08-05T07:57:00.125Z,101542.38
2022-08-05T07:59:39.076Z,101542.06
2022-08-05T08:02:15.899Z,101547.34
2022-08-05T08:04:49.535Z,101539.81
2022-08-05T08:07:22.979Z,101539.34
2022-08-05T08:09:52.366Z,101556.78
2022-08-05T08:12:37.082Z,101548.56
2022-08-05T08:15:15.291Z,101556.78
2022-08-05T08:17:52.626Z,101555.69
2022-08-05T08:20:59.740Z,101551.84
2022-08-05T08:23:59.903Z,101554.66
2022-08-05T08:25:59.348Z,101560.03
2022-08-05T08:28:36.468Z,101548.56
2022-08-05T08:31:08.113Z,101560.94
2022-08-05T08:33:37.500Z,101569.22
2022-08-05T08:36:38.255Z,101571.25
2022-08-05T08:38:56.754Z,101579.19
2022-08-05T08:41:51.808Z,101580.94
2022-08-05T08:45:24.390Z,101581.72
2022-08-05T08:47:47.626Z,101586.03
2022-08-05T08:50:12.900Z,101580.44
2022-08-05T08:52:51.534Z,101579.75
2022-08-05T08:55:32.024Z,101592.81
2022-08-05T08:58:13.181Z,101597.25
2022-08-05T09:00:42.309Z,101594.41
2022-08-05T09:03:11.287Z,101596.94
2022-08-05T09:06:08.809Z,101602.78
2022-08-05T09:08:27.510Z,101591.91
2022-08-05T09:10:57.931Z,101595.09
2022-08-05T09:13:25.084Z,101578.50
2022-08-05T09:15:59.835Z,101595.50
2022-08-05T09:18:27.013Z,101594.84
2022-08-05T09:20:54.143Z,101614.38
2022-08-05T09:23:37.264Z,101598.75
2022-08-05T09:26:22.240Z,101611.16
2022-08-05T09:28:49.446Z,101613.94
2022-08-05T09:31:43.313Z,101621.81
2022-08-05T09:34:06.320Z,101624.13
2022-08-05T09:36:55.859Z,101625.66
2022-08-05T09:39:27.715Z,101636.25
2022-08-05T09:42:28.130Z,101648.88
2022-08-05T09:45:03.191Z,101634.41
2022-08-05T09:47:56.295Z,101645.84
2022-08-05T09:50:44.492Z,101637.97
2022-08-05T09:53:23.068Z,101635.66
2022-08-05T09:56:03.935Z,101633.97
2022-08-05T09:58:32.001Z,101658.66
2022-08-05T10:01:14.697Z,101629.66
2022-08-05T10:04:10.055Z,101638.22
2022-08-05T10:06:54.909Z,101645.09
2022-08-05T10:09:27.998Z,101660.97
2022-08-05T10:12:33.332Z,101647.66
2022-08-05T10:15:26.052Z,101677.31
2022-08-05T10:18:22.406Z,101641.38
2022-08-05T10:20:56.654Z,101653.19
2022-08-05T10:23:56.065Z,101650.03
2022-08-05T10:26:16.893Z,101631.97
2022-08-05T10:28:46.585Z,101646.69
2022-08-05T10:32:48.301Z,101642.44
2022-08-05T10:34:04.038Z,101659.78
2022-08-05T10:36:37.045Z,101667.63
2022-08-05T10:39:24.464Z,101646.53
2022-08-05T10:42:18.790Z,101660.63
2022-08-05T10:44:59.692Z,101671.66
2022-08-05T10:47:36.694Z,101665.63
2022-08-05T10:50:32.146Z,101670.34
2022-08-05T10:53:01.818Z,101670.81
2022-08-05T10:55:38.539Z,101657.97
2022-08-05T10:58:21.518Z,101662.25
2022-08-05T11:01:11.717Z,101662.22
2022-08-05T11:04:03.780Z,101652.69
2022-08-05T11:06:35.195Z,101681.50
2022-08-05T11:09:39.255Z,101688.13
2022-08-05T11:12:45.200Z,101706.13
2022-08-05T11:15:59.044Z,101709.94
2022-08-05T11:21:57.929Z,101713.75
2022-08-05T11:24:30.609Z,101690.41
2022-08-05T11:27:51.491Z,101714.41
2022-08-05T11:30:27.259Z,101724.50
2022-08-05T11:33:46.049Z,101705.88
2022-08-05T11:36:34.729Z,101730.06
2022-08-05T11:39:08.564Z,101726.66
2022-08-05T11:42:01.311Z,101735.47
2022-08-05T11:44:52.720Z,101746.97
2022-08-05T11:47:22.155Z,101756.06
2022-08-05T11:50:08.782Z,101755.72
2022-08-05T11:52:35.589Z,101765.13
2022-08-05T11:55:07.708Z,101770.56
2022-08-05T11:58:08.679Z,101763.72
2022-08-05T12:00:31.273Z,101761.06
2022-08-05T12:02:58.280Z,101774.81
2022-08-05T12:05:32.285Z,101784.31
2022-08-05T12:08:09.926Z,101779.34
2022-08-05T12:10:45.412Z,101782.28
2022-08-05T12:13:17.368Z,101784.34
2022-08-05T12:15:56.028Z,101782.47
2022-08-05T12:18:33.145Z,101776.09
2022-08-05T12:21:11.279Z,101783.13
2022-08-05T12:24:04.856Z,101795.84
2022-08-05T12:26:32.362Z,101793.84
2022-08-05T12:28:59.994Z,101796.44
2022-08-05T12:31:40.651Z,101792.59
2022-08-05T12:34:14.704Z,101790.53
2022-08-05T12:36:48.953Z,101792.50
2022-08-05T12:39:15.827Z,101794.63
2022-08-05T12:41:43.598Z,101796.84
2022-08-05T12:44:14.243Z,101803.84
2022-08-05T12:46:45.713Z,101798.06
2022-08-05T12:49:19.076Z,101798.13
2022-08-05T12:52:12.831Z,101808.47
2022-08-05T12:54:49.794Z,101808.34
2022-08-05T12:57:18.002Z,101813.66
2022-08-05T13:01:57.259Z,101822.25
2022-08-05T13:02:37.323Z,101812.88
2022-08-05T13:05:07.727Z,101817.25
2022-08-05T13:10:24.340Z,101820.41
2022-08-05T13:12:58.055Z,101819.25
2022-08-05T13:15:41.997Z,101817.06
2022-08-05T13:18:19.802Z,101816.00
2022-08-05T13:20:49.193Z,101814.47
2022-08-05T13:23:22.272Z,101821.66
2022-08-05T13:25:59.258Z,101823.41
2022-08-05T13:28:27.382Z,101826.75
2022-08-05T13:30:54.029Z,101830.53
2022-08-05T13:34:23.515Z,101834.16
2022-08-05T13:36:11.406Z,101831.16
2022-08-05T13:38:42.702Z,101846.19
2022-08-05T13:41:13.641Z,101840.84
2022-08-05T13:43:54.528Z,101854.06
2022-08-05T13:46:44.375Z,101857.16
2022-08-05T13:49:11.866Z,101852.22
2022-08-05T13:51:40.276Z,101856.84
2022-08-05T13:54:13.204Z,101851.28
2022-08-05T13:56:45.262Z,101862.75
2022-08-05T13:59:24.008Z,101857.06
2022-08-05T14:01:58.866Z,101856.97
2022-08-05T14:04:51.326Z,101866.53
2022-08-05T14:07:26.423Z,101873.97
2022-08-05T14:10:18.835Z,101872.69
2022-08-05T14:12:48.645Z,101865.94
2022-08-05T14:16:07.366Z,101877.03
2022-08-05T14:18:03.964Z,101874.59
2022-08-05T14:20:31.897Z,101877.53
2022-08-05T14:22:59.509Z,101879.16
2022-08-05T14:25:28.110Z,101889.00
2022-08-05T14:27:55.742Z,101878.56
2022-08-05T14:30:22.690Z,101892.56
2022-08-05T14:32:53.174Z,101890.06
2022-08-05T14:35:20.825Z,101887.63
2022-08-05T14:37:55.065Z,101885.28
2022-08-05T14:40:24.141Z,101883.91
2022-08-05T14:42:51.928Z,101879.84
2022-08-05T14:45:18.765Z,101886.81
2022-08-05T14:48:05.427Z,101886.00
2022-08-05T14:50:33.260Z,101891.03
2022-08-05T14:53:06.880Z,101882.44
2022-08-05T14:55:39.488Z,101903.88
2022-08-05T14:58:10.879Z,101890.16
2022-08-05T15:00:59.182Z,101885.41
2022-08-05T15:03:33.330Z,101891.13
2022-08-05T15:06:07.979Z,101887.06
2022-08-05T15:08:59.673Z,101883.38
2022-08-05T15:11:50.920Z,101898.47
2022-08-05T15:14:34.275Z,101908.78
2022-08-05T15:17:03.726Z,101905.22
2022-08-05T15:19:31.665Z,101896.38
2022-08-05T15:22:01.260Z,101902.06
2022-08-05T15:24:29.490Z,101904.72
2022-08-05T15:26:59.329Z,101902.72
2022-08-05T15:29:29.752Z,101898.44
2022-08-05T15:32:02.351Z,101902.50
2022-08-05T15:34:33.819Z,101911.81
2022-08-05T15:37:06.086Z,101912.75
2022-08-05T15:41:02.074Z,101914.97
2022-08-05T15:42:53.436Z,101922.41
2022-08-05T15:45:10.439Z,101931.47
2022-08-05T15:47:38.426Z,101917.66
2022-08-05T15:50:07.750Z,101924.50
2022-08-05T15:52:53.226Z,101939.16
2022-08-05T15:56:02.593Z,101937.34
2022-08-05T15:58:16.805Z,101935.53
2022-08-05T16:01:03.563Z,101930.66
2022-08-05T16:03:32.674Z,101942.56
2022-08-05T16:06:01.280Z,101947.25
2022-08-05T16:08:30.716Z,101947.16
2022-08-05T16:10:58.708Z,101954.53
2022-08-05T16:13:34.444Z,101949.97
2022-08-05T16:16:05.477Z,101953.56
2022-08-05T16:18:35.372Z,101966.41
2022-08-05T16:21:20.798Z,101969.84
2022-08-05T16:24:12.831Z,101968.59
2022-08-05T16:27:01.892Z,101979.03
2022-08-05T16:29:31.109Z,101971.84
2022-08-05T16:32:04.643Z,101959.91
2022-08-05T16:34:31.629Z,101976.81
2022-08-05T16:36:58.670Z,101981.47
2022-08-05T16:40:06.410Z,101998.44
2022-08-05T16:42:18.446Z,101991.56
2022-08-05T16:44:57.208Z,101985.66
2022-08-05T16:47:28.695Z,101992.59
2022-08-05T16:50:07.681Z,102004.78
2022-08-05T16:52:37.551Z,102005.00
2022-08-05T16:55:05.377Z,101990.59
2022-08-05T16:58:00.097Z,102004.41
2022-08-05T17:00:26.054Z,102016.81
2022-08-05T17:03:03.039Z,102019.09
2022-08-05T17:05:30.525Z,102022.16
2022-08-05T17:07:58.042Z,102018.88
2022-08-05T17:10:26.412Z,102019.09
2022-08-05T17:12:57.694Z,102010.94
2022-08-05T17:15:24.777Z,102008.72
2022-08-05T17:18:14.104Z,102027.59
2022-08-05T17:20:44.816Z,102028.81
2022-08-05T17:24:04.916Z,102028.81
2022-08-05T17:25:59.686Z,102033.72
2022-08-05T17:28:29.349Z,102040.25
2022-08-05T17:30:56.572Z,102036.19
2022-08-05T17:33:25.451Z,102043.72
2022-08-05T17:36:08.081Z,102055.69
2022-08-05T17:38:39.892Z,102045.28
2022-08-05T17:41:11.720Z,102050.41
2022-08-05T17:43:54.723Z,102062.56
2022-08-05T17:46:24.193Z,102060.38
2022-08-05T17:48:50.953Z,102068.97
2022-08-05T17:51:21.845Z,102066.41
2022-08-05T17:53:54.369Z,102076.59
2022-08-05T17:56:21.716Z,102073.81
2022-08-05T17:58:49.757Z,102081.91
2022-08-05T18:01:18.707Z,102083.25
2022-08-05T18:03:58.467Z,102065.31
2022-08-05T18:06:31.138Z,102086.72
2022-08-05T18:08:58.712Z,102097.03
2022-08-05T18:11:32.934Z,102100.16
2022-08-05T18:14:03.178Z,102086.09
2022-08-05T18:16:35.189Z,102079.56
2022-08-05T18:19:13.696Z,102107.03
2022-08-05T18:22:07.332Z,102106.06
2022-08-05T18:24:29.743Z,102095.88
2022-08-05T18:26:56.501Z,102101.13
2022-08-05T18:29:40.766Z,102122.44
2022-08-05T18:32:12.640Z,102121.41
2022-08-05T18:34:43.190Z,102118.19
2022-08-05T18:37:12.701Z,102135.97
2022-08-05T18:41:50.741Z,102134.09
2022-08-05T18:42:43.788Z,102133.84
2022-08-05T18:45:13.183Z,102133.28
2022-08-05T18:47:42.798Z,102133.94
2022-08-05T18:50:45.364Z,102130.69
2022-08-05T18:53:19.260Z,102138.63
2022-08-05T18:55:52.472Z,102131.44
2022-08-05T18:58:29.652Z,102148.06
2022-08-05T19:01:02.244Z,102145.19
2022-08-05T19:03:53.234Z,102144.22
2022-08-05T19:06:22.412Z,102160.63
2022-08-05T19:09:04.312Z,102154.22
2022-08-05T19:11:59.186Z,102156.00
2022-08-05T19:14:53.450Z,102155.66
2022-08-05T19:17:09.085Z,102162.47
2022-08-05T19:19:48.504Z,102151.22
2022-08-05T19:22:17.195Z,102157.38
2022-08-05T19:24:54.346Z,102172.91
2022-08-05T19:27:30.533Z,102174.00
2022-08-05T19:29:58.438Z,102170.25
2022-08-05T19:32:27.783Z,102176.69
2022-08-05T19:34:58.079Z,102176.44
2022-08-05T19:37:47.189Z,102177.56
2022-08-05T19:40:36.074Z,102181.38
2022-08-05T19:43:05.315Z,102182.53
2022-08-05T19:45:36.841Z,102178.31
2022-08-05T19:48:05.317Z,102194.94
2022-08-05T19:50:32.204Z,102189.56
2022-08-05T19:53:09.502Z,102194.38
2022-08-05T19:56:14.955Z,102193.22
2022-08-05T19:58:29.426Z,102204.66
2022-08-05T20:00:57.687Z,102210.34
2022-08-05T20:03:26.193Z,102201.44
2022-08-05T20:05:56.603Z,102213.00
2022-08-05T20:08:24.855Z,102203.50
2022-08-05T20:10:52.401Z,102211.56
2022-08-05T20:13:25.800Z,102231.31
2022-08-05T20:16:13.778Z,102229.94
2022-08-05T20:18:46.715Z,102236.97
2022-08-05T20:21:22.891Z,102242.50
2022-08-05T20:23:53.124Z,102249.56
2022-08-05T20:26:26.842Z,102245.59
2022-08-05T20:28:57.638Z,102237.63
2022-08-05T20:31:42.034Z,102258.84
2022-08-05T20:34:12.490Z,102260.50
2022-08-05T20:36:43.431Z,102259.50
2022-08-05T20:39:16.615Z,102258.22
2022-08-05T20:41:45.169Z,102262.00
2022-08-05T20:44:17.822Z,102264.78
2022-08-05T20:47:01.896Z,102262.50
2022-08-05T20:49:38.126Z,102265.31
2022-08-05T20:52:08.911Z,102266.16
2022-08-05T20:54:42.916Z,102262.50
2022-08-05T20:57:42.060Z,102272.66
2022-08-05T21:00:40.376Z,102269.06
2022-08-05T21:03:06.738Z,102269.09
2022-08-05T21:05:48.067Z,102272.03
2022-08-05T21:08:28.200Z,102271.03
2022-08-05T21:11:12.935Z,102275.13
2022-08-05T21:13:59.610Z,102287.47
2022-08-05T21:16:30.169Z,102283.19
2022-08-05T21:19:00.929Z,102276.63
2022-08-05T21:21:39.339Z,102278.41
2022-08-05T21:24:15.640Z,102280.56
2022-08-05T21:26:47.196Z,102281.19
2022-08-05T21:29:19.972Z,102273.16
2022-08-05T21:31:51.025Z,102283.31
2022-08-05T21:34:19.845Z,102288.22
2022-08-05T21:36:49.129Z,102285.31
2022-08-05T21:39:17.055Z,102282.81
2022-08-05T21:42:01.467Z,102291.00
2022-08-05T21:44:30.398Z,102285.88
2022-08-05T21:46:58.510Z,102295.72
2022-08-05T21:49:58.653Z,102308.41
2022-08-05T21:52:21.395Z,102299.88
2022-08-05T21:54:55.053Z,102299.94
2022-08-05T21:57:37.659Z,102304.06
2022-08-05T22:00:12.696Z,102314.56
2022-08-05T22:02:42.667Z,102322.91
2022-08-05T22:05:14.318Z,102317.84
2022-08-05T22:07:58.258Z,102319.19
2022-08-05T22:10:27.476Z,102314.44
2022-08-05T22:13:08.815Z,102324.25
2022-08-05T22:16:02.601Z,102316.56
2022-08-05T22:18:33.463Z,102330.28
2022-08-05T22:21:00.803Z,102323.25
2022-08-05T22:24:02.814Z,102330.28
2022-08-05T22:26:54.551Z,102321.09
2022-08-05T22:29:26.659Z,102329.47
2022-08-05T22:31:59.725Z,102323.16
2022-08-05T22:34:32.283Z,102334.31
2022-08-05T22:36:59.723Z,102335.31
2022-08-05T22:39:32.924Z,102329.19
2022-08-05T22:42:12.412Z,102318.66
2022-08-05T22:44:48.574Z,102327.50
2022-08-05T22:47:29.115Z,102336.84
2022-08-05T22:50:19.304Z,102344.66
2022-08-05T22:52:44.043Z,102347.03
2022-08-05T22:55:19.399Z,102343.88
2022-08-05T22:57:49.756Z,102345.59
2022-08-05T23:00:18.221Z,102347.38
2022-08-05T23:02:48.391Z,102358.06
2022-08-05T23:05:15.839Z,102358.88
2022-08-05T23:07:44.795Z,102362.97
2022-08-05T23:10:13.264Z,102354.44
2022-08-05T23:12:43.913Z,102360.66
2022-08-05T23:15:12.757Z,102360.03
2022-08-05T23:18:01.401Z,102363.34
2022-08-05T23:20:47.935Z,102363.28
2022-08-05T23:23:15.982Z,102358.34
2022-08-05T23:25:52.859Z,102353.47
2022-08-05T23:28:23.931Z,102358.66
2022-08-05T23:30:54.763Z,102364.44
2022-08-05T23:33:26.265Z,102367.88
2022-08-05T23:36:13.468Z,102367.56
2022-08-05T23:38:43.568Z,102379.09
2022-08-05T23:41:14.320Z,102378.81
2022-08-05T23:44:03.164Z,102385.16
2022-08-05T23:46:31.092Z,102376.16
2022-08-05T23:48:59.848Z,102382.97
2022-08-05T23:51:52.891Z,102379.38
2022-08-05T23:54:33.714Z,102383.47
2022-08-05T23:57:04.738Z,102387.78
